Time;durP1;ratioP1;P1;durP2;ratioP2;P2;SDS_P1;SDS_P2;PMS_P1;PMS_P2;Temp;Humidity;BMP_temperature;BMP_pressure;BME280_temperature;BME280_humidity;BME280_pressure;Samples;Min_cycle;Max_cycle;Signal;HPM_P1;HPM_P2
2022/01/10 00:02:03;;;;;;;2.13;0.40;;;21.00;36.60;;;;;;5128691;28;20080;-69
2022/01/10 00:04:28;;;;;;;2.65;0.73;;;20.90;36.60;;;;;;5129870;27;20043;-66
2022/01/10 00:06:54;;;;;;;2.75;0.55;;;20.80;36.60;;;;;;5128752;28;20065;-68
2022/01/10 00:09:19;;;;;;;2.08;0.77;;;20.80;36.70;;;;;;5128762;28;20044;-68
2022/01/10 00:11:45;;;;;;;2.55;0.60;;;20.80;36.70;;;;;;5128290;28;20050;-67
2022/01/10 00:14:11;;;;;;;2.53;0.55;;;20.70;36.70;;;;;;5128485;28;20047;-68
2022/01/10 00:16:37;;;;;;;3.25;0.85;;;20.70;36.70;;;;;;5128284;28;20043;-69
2022/01/10 00:19:03;;;;;;;2.60;0.60;;;20.70;36.80;;;;;;5128265;28;20043;-69
2022/01/10 00:21:29;;;;;;;3.90;1.10;;;20.70;36.80;;;;;;5128195;28;20599;-67
2022/01/10 00:23:54;;;;;;;1.85;0.57;;;20.60;36.90;;;;;;5128180;28;20043;-69
2022/01/10 00:26:20;;;;;;;3.97;0.98;;;20.60;36.90;;;;;;5127983;28;20046;-67
2022/01/10 00:28:46;;;;;;;3.40;0.60;;;20.50;36.90;;;;;;5128162;28;20043;-69
2022/01/10 00:31:11;;;;;;;2.30;0.63;;;20.50;36.90;;;;;;5129256;28;20079;-68
2022/01/10 00:33:37;;;;;;;3.78;0.40;;;20.50;36.90;;;;;;5128309;28;20122;-67
2022/01/10 00:36:03;;;;;;;3.55;0.50;;;20.50;36.80;;;;;;5129104;28;20035;-70
2022/01/10 00:38:29;;;;;;;2.20;0.50;;;20.60;36.70;;;;;;5127490;28;20055;-69
2022/01/10 00:40:54;;;;;;;2.58;0.65;;;20.60;36.50;;;;;;5129095;28;20031;-66
2022/01/10 00:43:30;;;;;;;3.50;0.60;;;20.70;36.40;;;;;;5129203;28;20035;-67
2022/01/10 00:45:57;;;;;;;2.30;0.60;;;20.80;36.20;;;;;;5128045;28;20096;-68
2022/01/10 00:48:23;;;;;;;4.18;0.50;;;20.90;36.10;;;;;;5127655;28;20039;-69
2022/01/10 00:50:49;;;;;;;2.00;0.57;;;21.00;36.00;;;;;;5115600;28;20055;-69
2022/01/10 00:53:14;;;;;;;2.97;0.70;;;21.00;35.80;;;;;;5115222;28;20031;-69
2022/01/10 00:55:40;;;;;;;2.35;0.60;;;21.10;35.80;;;;;;5113837;28;20048;-69
2022/01/10 00:58:05;;;;;;;2.65;0.57;;;21.10;35.70;;;;;;5113702;28;20035;-69
2022/01/10 01:00:32;;;;;;;5.72;0.70;;;21.10;35.70;;;;;;5114037;28;20047;-68
2022/01/10 01:02:58;;;;;;;4.45;1.10;;;21.00;35.70;;;;;;5114988;28;20073;-69
2022/01/10 01:05:26;;;;;;;2.47;0.77;;;21.00;35.80;;;;;;5114043;28;20077;-70
2022/01/10 01:07:52;;;;;;;2.67;0.70;;;20.90;35.90;;;;;;5114915;28;20112;-69
2022/01/10 01:13:25;;;;;;;4.18;0.98;;;20.80;36.00;;;;;;5113642;28;20047;-69
2022/01/10 01:24:12;;;;;;;4.47;0.90;;;20.40;36.60;;;;;;5128644;28;20498;-69
2022/01/10 01:26:40;;;;;;;2.30;0.60;;;20.30;36.70;;;;;;5129160;28;20031;-69
2022/01/10 01:29:09;;;;;;;2.90;0.43;;;20.20;36.80;;;;;;5129155;28;20330;-70
2022/01/10 01:31:36;;;;;;;3.13;0.50;;;20.20;36.90;;;;;;5128817;28;20501;-69
2022/01/10 01:34:05;;;;;;;2.35;0.65;;;20.10;37.00;;;;;;5128712;28;20039;-70
2022/01/10 01:36:32;;;;;;;3.33;0.65;;;20.10;37.10;;;;;;5130021;28;20038;-69
2022/01/10 01:38:58;;;;;;;3.55;1.02;;;20.00;37.10;;;;;;5128550;27;20043;-70
2022/01/10 01:44:06;;;;;;;3.03;0.98;;;19.90;37.10;;;;;;5130256;27;20354;-69
2022/01/10 01:46:34;;;;;;;1.67;0.63;;;19.90;37.20;;;;;;5129024;28;20051;-69
2022/01/10 01:49:00;;;;;;;3.90;0.93;;;20.00;37.30;;;;;;5129125;28;20478;-70
2022/01/10 01:51:26;;;;;;;4.30;0.98;;;20.00;37.20;;;;;;5129377;28;20077;-69
2022/01/10 01:53:52;;;;;;;3.83;0.90;;;20.00;37.10;;;;;;5130109;28;20429;-70
2022/01/10 01:56:20;;;;;;;4.78;1.00;;;20.10;37.00;;;;;;5129050;28;20518;-69
2022/01/10 01:58:46;;;;;;;3.97;0.85;;;20.20;36.90;;;;;;5129959;27;20112;-70
2022/01/10 02:01:16;;;;;;;1.77;0.50;;;20.20;36.70;;;;;;5128997;28;20043;-70
2022/01/10 02:03:42;;;;;;;3.50;0.80;;;20.30;36.70;;;;;;5129942;27;20050;-71
2022/01/10 02:06:08;;;;;;;2.42;0.70;;;20.30;36.60;;;;;;5128615;28;20039;-69
2022/01/10 02:08:36;;;;;;;2.83;1.20;;;20.30;36.50;;;;;;5128651;28;20479;-68
2022/01/10 02:11:03;;;;;;;2.50;0.70;;;20.40;36.50;;;;;;5128680;28;20050;-69
2022/01/10 02:13:29;;;;;;;3.03;0.47;;;20.40;36.40;;;;;;5129686;27;20078;-69
2022/01/10 02:16:01;;;;;;;3.63;0.70;;;20.40;36.40;;;;;;5129637;28;20160;-69
2022/01/10 02:18:27;;;;;;;1.85;0.60;;;20.40;36.40;;;;;;5129948;27;20039;-71
2022/01/10 02:20:53;;;;;;;3.05;0.70;;;20.40;36.40;;;;;;5129654;27;20039;-69
2022/01/10 02:23:19;;;;;;;2.50;0.82;;;20.30;36.40;;;;;;5129531;27;20042;-71
2022/01/10 02:25:46;;;;;;;2.53;0.80;;;20.30;36.40;;;;;;5128193;28;20394;-70
2022/01/10 02:28:13;;;;;;;3.38;1.02;;;20.30;36.50;;;;;;5128213;27;20208;-70
2022/01/10 02:30:39;;;;;;;4.40;0.82;;;20.20;36.50;;;;;;5128407;28;20390;-70
2022/01/10 02:33:05;;;;;;;2.70;0.95;;;20.20;36.60;;;;;;5128365;28;20046;-71
2022/01/10 02:35:40;;;;;;;2.30;0.73;;;20.10;36.60;;;;;;5127972;28;20043;-71
2022/01/10 02:38:05;;;;;;;2.42;0.63;;;20.10;36.70;;;;;;5128269;28;20049;-70
2022/01/10 02:40:33;;;;;;;2.67;0.77;;;20.00;36.70;;;;;;5127908;28;20469;-70
2022/01/10 02:42:59;;;;;;;3.00;1.00;;;20.00;36.80;;;;;;5128874;27;20052;-72
2022/01/10 02:45:25;;;;;;;2.17;0.65;;;20.00;36.90;;;;;;5127775;28;20038;-70
2022/01/10 02:47:53;;;;;;;2.60;0.80;;;19.90;36.90;;;;;;5127850;28;20499;-70
2022/01/10 02:50:20;;;;;;;3.30;1.45;;;19.80;36.90;;;;;;5128069;28;20039;-71
2022/01/10 02:52:47;;;;;;;3.15;1.15;;;19.80;37.00;;;;;;5127906;28;20436;-70
2022/01/10 02:55:14;;;;;;;3.20;1.08;;;19.70;37.00;;;;;;5115228;28;20039;-70
2022/01/10 02:57:40;;;;;;;1.88;0.77;;;19.70;37.10;;;;;;5114094;28;20618;-70
2022/01/10 03:00:10;;;;;;;3.03;0.57;;;19.70;37.20;;;;;;5114227;28;20418;-69
2022/01/10 03:02:36;;;;;;;1.88;0.70;;;19.60;37.20;;;;;;5115169;28;20036;-71
2022/01/10 03:05:04;;;;;;;3.10;1.05;;;19.60;37.30;;;;;;5113820;28;20406;-71
2022/01/10 03:07:33;;;;;;;2.67;0.85;;;19.50;37.30;;;;;;5114004;28;20379;-71
2022/01/10 03:09:59;;;;;;;2.17;0.40;;;19.50;37.40;;;;;;5114973;28;20044;-70
2022/01/10 03:12:26;;;;;;;3.67;0.73;;;19.50;37.60;;;;;;5113759;28;20047;-71
2022/01/10 03:14:51;;;;;;;3.28;0.80;;;19.40;37.60;;;;;;5113548;28;20503;-71
2022/01/10 03:17:17;;;;;;;1.60;1.05;;;19.40;37.60;;;;;;5113451;28;20152;-68
2022/01/10 03:19:46;;;;;;;2.47;0.70;;;19.30;37.70;;;;;;5114784;28;20044;-71
2022/01/10 03:22:14;;;;;;;4.03;0.85;;;19.30;37.70;;;;;;5113532;28;20042;-70
2022/01/10 03:24:40;;;;;;;2.90;0.80;;;19.30;38.10;;;;;;5113403;28;20118;-70
2022/01/10 03:27:06;;;;;;;3.35;0.80;;;19.30;37.80;;;;;;5114478;28;20131;-69
2022/01/10 03:29:31;;;;;;;2.28;0.88;;;19.30;37.80;;;;;;5114641;28;20075;-70
2022/01/10 03:31:57;;;;;;;2.13;0.80;;;19.30;37.80;;;;;;5113540;28;20465;-71
2022/01/10 03:34:23;;;;;;;2.67;0.77;;;19.30;37.80;;;;;;5113242;28;20543;-71
2022/01/10 03:36:48;;;;;;;3.17;1.10;;;19.40;37.70;;;;;;5114535;28;20036;-70
2022/01/10 03:39:17;;;;;;;3.08;0.95;;;19.40;37.60;;;;;;5113418;28;20541;-71
2022/01/10 03:41:43;;;;;;;2.20;0.70;;;19.40;37.60;;;;;;5112678;28;20036;-70
2022/01/10 03:44:08;;;;;;;2.65;0.77;;;19.40;37.50;;;;;;5113249;28;20096;-70
2022/01/10 03:46:34;;;;;;;2.95;0.88;;;19.40;37.40;;;;;;5112978;28;20043;-71
2022/01/10 03:49:01;;;;;;;4.55;0.80;;;19.50;37.30;;;;;;5112829;28;20069;-71
2022/01/10 03:51:27;;;;;;;2.60;1.23;;;19.50;37.30;;;;;;5113203;28;20040;-68
2022/01/10 03:53:53;;;;;;;4.22;1.08;;;19.60;37.30;;;;;;5114008;28;20126;-70
2022/01/10 03:56:20;;;;;;;2.88;0.90;;;19.50;37.20;;;;;;5114015;28;20088;-70
2022/01/10 03:58:49;;;;;;;2.72;0.90;;;19.50;37.20;;;;;;5113178;28;20039;-67
2022/01/10 04:01:15;;;;;;;3.70;0.98;;;19.50;37.20;;;;;;5112926;27;20028;-68
2022/01/10 04:03:41;;;;;;;2.20;0.90;;;19.50;37.30;;;;;;5112563;28;20441;-71
2022/01/10 04:06:08;;;;;;;3.13;0.70;;;19.40;38.10;;;;;;5111615;28;20114;-67
2022/01/10 04:08:33;;;;;;;2.85;0.88;;;19.40;37.40;;;;;;5112741;28;20402;-72
2022/01/10 04:10:59;;;;;;;4.65;1.00;;;19.30;37.50;;;;;;5112722;28;20061;-70
2022/01/10 04:13:25;;;;;;;2.70;0.70;;;19.20;37.50;;;;;;5114115;28;20210;-70
2022/01/10 04:15:51;;;;;;;3.53;0.70;;;19.20;37.60;;;;;;5112520;28;20074;-70
2022/01/10 04:18:17;;;;;;;4.57;0.70;;;19.10;37.70;;;;;;5113893;28;20063;-68
2022/01/10 04:20:44;;;;;;;2.78;0.70;;;19.00;37.80;;;;;;5112676;28;20475;-70
2022/01/10 04:23:10;;;;;;;3.30;1.10;;;19.00;38.00;;;;;;5112379;28;20399;-68
2022/01/10 04:25:35;;;;;;;2.22;0.63;;;18.90;38.00;;;;;;5113443;28;20036;-67
2022/01/10 04:28:01;;;;;;;4.03;0.90;;;18.80;38.10;;;;;;5112213;28;20036;-67
2022/01/10 04:30:27;;;;;;;2.80;0.70;;;18.80;38.20;;;;;;5112399;28;20043;-68
2022/01/10 04:32:53;;;;;;;2.00;0.70;;;18.70;38.30;;;;;;5113790;28;20081;-70
2022/01/10 04:35:19;;;;;;;1.70;0.90;;;18.70;38.40;;;;;;5113278;28;20039;-70
2022/01/10 04:37:45;;;;;;;3.08;0.70;;;18.60;38.50;;;;;;5113341;28;20032;-69
2022/01/10 04:40:11;;;;;;;2.25;0.57;;;18.50;38.60;;;;;;5113264;28;20444;-70
2022/01/10 04:42:40;;;;;;;2.75;0.80;;;18.50;38.60;;;;;;5112819;28;20402;-70
2022/01/10 04:45:06;;;;;;;2.17;0.95;;;18.40;38.70;;;;;;5111828;28;20078;-67
2022/01/10 04:47:32;;;;;;;1.95;0.80;;;18.40;38.80;;;;;;5112079;28;20386;-70
2022/01/10 04:52:44;;;;;;;1.63;0.70;;;18.30;38.90;;;;;;5130230;27;20369;-70
2022/01/10 04:55:11;;;;;;;2.33;0.90;;;18.30;39.00;;;;;;5128842;28;20553;-67
2022/01/10 04:57:37;;;;;;;2.83;1.00;;;18.20;39.00;;;;;;5128965;28;20486;-68
2022/01/10 05:00:08;;;;;;;2.45;0.70;;;18.20;39.10;;;;;;5128725;28;20086;-72
2022/01/10 05:02:34;;;;;;;2.92;0.70;;;18.10;39.10;;;;;;5130311;27;20035;-67
2022/01/10 05:04:59;;;;;;;2.60;0.93;;;18.10;39.20;;;;;;5128893;28;20082;-70
2022/01/10 05:07:25;;;;;;;1.73;0.90;;;18.00;39.20;;;;;;5129113;28;20067;-71
2022/01/10 05:09:51;;;;;;;2.92;1.05;;;18.00;39.30;;;;;;5128828;28;20040;-70
2022/01/10 05:12:17;;;;;;;2.92;0.95;;;18.00;39.30;;;;;;5129943;28;20118;-70
2022/01/10 05:14:43;;;;;;;3.05;0.80;;;18.00;39.30;;;;;;5128649;28;20043;-68
2022/01/10 05:17:10;;;;;;;3.65;0.95;;;17.90;39.40;;;;;;5128527;28;20050;-69
2022/01/10 05:19:36;;;;;;;1.73;0.52;;;17.90;39.40;;;;;;5128573;28;20067;-69
2022/01/10 05:22:02;;;;;;;4.35;1.23;;;17.90;39.50;;;;;;5128427;28;20071;-67
2022/01/10 05:24:28;;;;;;;1.73;0.90;;;17.90;39.50;;;;;;5129679;27;20040;-67
2022/01/10 05:26:57;;;;;;;2.50;1.02;;;17.90;39.60;;;;;;5128295;28;20076;-70
2022/01/10 05:29:22;;;;;;;1.98;0.50;;;17.70;39.50;;;;;;5129875;28;20117;-70
2022/01/10 05:31:48;;;;;;;3.55;1.02;;;17.80;39.60;;;;;;5128197;28;20180;-67
2022/01/10 05:34:14;;;;;;;2.58;1.17;;;17.80;39.70;;;;;;5129514;27;20044;-70
2022/01/10 05:36:40;;;;;;;3.05;0.88;;;17.80;39.70;;;;;;5128403;28;20510;-69
2022/01/10 05:39:07;;;;;;;3.00;0.82;;;17.80;39.70;;;;;;5128187;28;20521;-67
2022/01/10 05:41:34;;;;;;;2.88;1.10;;;17.70;39.70;;;;;;5128271;28;20051;-70
2022/01/10 05:44:03;;;;;;;2.67;1.08;;;17.70;39.70;;;;;;5128381;28;20504;-70
2022/01/10 05:46:29;;;;;;;3.17;1.13;;;17.70;39.70;;;;;;5127958;28;20050;-70
2022/01/10 05:49:00;;;;;;;3.47;1.33;;;17.70;39.70;;;;;;5129270;27;20046;-68
2022/01/10 05:51:33;;;;;;;1.83;0.60;;;17.70;39.80;;;;;;5128889;27;20059;-68
2022/01/10 05:53:59;;;;;;;2.85;1.00;;;17.70;39.80;;;;;;5128037;28;20048;-68
2022/01/10 05:56:25;;;;;;;3.15;0.98;;;17.70;39.70;;;;;;5128137;28;20108;-70
2022/01/10 05:58:50;;;;;;;3.63;0.85;;;17.70;39.70;;;;;;5128033;28;20475;-70
2022/01/10 06:01:16;;;;;;;3.05;1.05;;;17.70;39.70;;;;;;5127681;28;20035;-70
2022/01/10 06:03:42;;;;;;;2.35;0.50;;;17.60;39.70;;;;;;5115732;28;20032;-70
2022/01/10 06:06:10;;;;;;;3.50;1.10;;;17.60;39.70;;;;;;5114160;28;20040;-71
2022/01/10 06:08:36;;;;;;;2.22;0.82;;;17.60;39.80;;;;;;5113862;28;20475;-70
2022/01/10 06:11:02;;;;;;;2.67;0.68;;;17.70;39.80;;;;;;5115113;28;20050;-70
2022/01/10 06:13:27;;;;;;;2.63;1.02;;;17.60;39.80;;;;;;5113973;28;20100;-70
2022/01/10 06:15:53;;;;;;;1.58;0.85;;;17.60;39.80;;;;;;5115015;28;20425;-70
2022/01/10 06:18:19;;;;;;;2.33;0.70;;;17.60;39.90;;;;;;5114887;28;20047;-70
2022/01/10 06:20:44;;;;;;;1.92;0.65;;;17.60;39.90;;;;;;5113978;28;20044;-70
2022/01/10 06:23:11;;;;;;;2.53;1.10;;;17.60;39.90;;;;;;5113790;28;20043;-70
2022/01/10 06:25:39;;;;;;;1.88;0.85;;;17.60;39.90;;;;;;5096769;28;20066;-68
2022/01/10 06:28:05;;;;;;;2.20;0.73;;;17.60;39.90;;;;;;5114049;28;20039;-68
2022/01/10 06:30:34;;;;;;;2.60;0.75;;;17.60;39.90;;;;;;5113775;28;20479;-68
2022/01/10 06:33:00;;;;;;;3.75;0.82;;;17.60;39.90;;;;;;5112806;28;20395;-69
2022/01/10 06:35:26;;;;;;;2.15;0.52;;;17.60;40.30;;;;;;5112102;28;20040;-71
2022/01/10 06:37:52;;;;;;;2.40;0.75;;;17.80;40.80;;;;;;5113597;28;20027;-70
2022/01/10 06:40:18;;;;;;;1.38;0.73;;;18.00;41.20;;;;;;5113139;28;20070;-70
2022/01/10 06:42:44;;;;;;;1.63;0.50;;;18.30;41.40;;;;;;5112533;28;20035;-65
2022/01/10 06:45:11;;;;;;;4.90;0.60;;;18.70;41.50;;;;;;5111592;28;20030;-66
2022/01/10 06:47:37;;;;;;;1.52;0.55;;;19.00;41.40;;;;;;5113492;28;20107;-66
2022/01/10 06:50:05;;;;;;;2.05;0.57;;;19.20;41.10;;;;;;5113166;28;20035;-66
2022/01/10 06:52:31;;;;;;;1.40;0.80;;;19.40;40.90;;;;;;5111497;28;20406;-67
2022/01/10 06:54:57;;;;;;;2.53;0.75;;;19.70;40.50;;;;;;5110684;28;20554;-73
2022/01/10 06:57:23;;;;;;;2.03;0.80;;;19.90;40.20;;;;;;5109591;28;20118;-73
2022/01/10 06:59:51;;;;;;;2.55;0.63;;;20.00;39.90;;;;;;5113456;28;20082;-74
2022/01/10 07:02:17;;;;;;;1.67;0.60;;;20.20;40.40;;;;;;5110908;28;20032;-73
2022/01/10 07:04:43;;;;;;;2.55;0.50;;;20.30;39.40;;;;;;5111403;28;20394;-73
2022/01/10 07:07:09;;;;;;;1.52;0.63;;;20.40;39.30;;;;;;5099887;28;20073;-74
2022/01/10 07:09:35;;;;;;;1.38;0.52;;;20.50;39.20;;;;;;5096477;28;20548;-73
2022/01/10 07:12:04;;;;;;;1.65;0.80;;;20.60;38.80;;;;;;5102491;28;20050;-74
2022/01/10 07:14:32;;;;;;;3.13;0.98;;;20.70;38.70;;;;;;5097355;28;20044;-74
2022/01/10 07:16:58;;;;;;;2.60;0.60;;;20.70;38.80;;;;;;5093059;28;20136;-73
2022/01/10 07:19:24;;;;;;;2.00;0.65;;;20.80;38.80;;;;;;5094407;28;20504;-67
2022/01/10 07:21:50;;;;;;;2.67;0.77;;;21.00;38.40;;;;;;5096083;28;20055;-71
2022/01/10 07:24:16;;;;;;;2.42;0.80;;;21.10;38.10;;;;;;5097496;28;20028;-70
2022/01/10 07:26:42;;;;;;;1.98;1.50;;;21.20;37.80;;;;;;5100272;28;20035;-70
2022/01/10 07:29:11;;;;;;;2.85;1.88;;;21.20;36.80;;;;;;5099933;28;20043;-71
2022/01/10 07:31:38;;;;;;;3.20;2.22;;;21.20;35.70;;;;;;5102158;28;20040;-69
2022/01/10 07:34:05;;;;;;;5.05;2.67;;;21.10;34.80;;;;;;5098785;28;20075;-67
2022/01/10 07:36:30;;;;;;;5.53;3.47;;;21.00;33.80;;;;;;5096611;28;20040;-75
2022/01/10 07:38:56;;;;;;;5.88;3.33;;;20.90;33.20;;;;;;5100338;28;20619;-67
2022/01/10 07:41:22;;;;;;;4.57;4.00;;;20.80;32.60;;;;;;5099382;28;20638;-75
2022/01/10 07:43:48;;;;;;;5.15;3.40;;;20.70;32.30;;;;;;5091896;28;20686;-74
2022/01/10 07:46:14;;;;;;;5.63;3.75;;;20.60;32.10;;;;;;5110145;27;20086;-68
2022/01/10 07:48:42;;;;;;;5.70;3.50;;;20.60;32.00;;;;;;5091207;28;20051;-74
2022/01/10 07:51:09;;;;;;;4.63;3.05;;;20.50;32.00;;;;;;5109615;27;20087;-75
2022/01/10 07:53:37;;;;;;;7.38;2.78;;;20.50;32.50;;;;;;5096781;28;20491;-67
2022/01/10 07:56:03;;;;;;;2.42;2.00;;;20.50;33.00;;;;;;5098627;28;20097;-69
2022/01/10 07:58:32;;;;;;;6.55;1.90;;;20.50;33.50;;;;;;5092841;27;20139;-65
2022/01/10 08:00:58;;;;;;;3.70;1.77;;;20.70;34.00;;;;;;5091930;27;20479;-67
2022/01/10 08:03:25;;;;;;;4.70;1.60;;;20.80;34.20;;;;;;5093757;28;20044;-66
2022/01/10 08:05:54;;;;;;;3.55;1.33;;;20.90;34.50;;;;;;5093830;27;20283;-70
2022/01/10 08:08:20;;;;;;;5.68;1.48;;;21.10;34.50;;;;;;5091018;28;20055;-73
2022/01/10 08:10:46;;;;;;;3.00;1.42;;;21.10;34.40;;;;;;5090737;28;20048;-75
2022/01/10 08:13:12;;;;;;;3.60;1.48;;;21.10;34.60;;;;;;5108640;27;20069;-72
2022/01/10 08:15:37;;;;;;;7.50;1.83;;;21.10;34.90;;;;;;5093370;28;20048;-67
2022/01/10 08:18:08;;;;;;;2.05;0.90;;;21.10;35.20;;;;;;5096517;28;20135;-65
2022/01/10 08:20:33;;;;;;;9.07;1.33;;;21.20;35.20;;;;;;5094339;28;20090;-67
2022/01/10 08:22:59;;;;;;;3.50;1.13;;;21.40;35.20;;;;;;5093860;27;20068;-74
2022/01/10 08:25:25;;;;;;;5.07;1.13;;;21.60;35.00;;;;;;5094133;28;20046;-72
2022/01/10 08:27:51;;;;;;;4.05;0.82;;;21.80;34.70;;;;;;5108142;27;20046;-72
2022/01/10 08:30:17;;;;;;;1.75;0.93;;;22.00;34.70;;;;;;5096916;28;20032;-68
2022/01/10 08:32:44;;;;;;;5.03;0.93;;;22.10;34.60;;;;;;5087136;28;20048;-70
2022/01/10 08:35:10;;;;;;;3.47;0.77;;;22.30;34.50;;;;;;5090879;28;20083;-67
2022/01/10 08:37:36;;;;;;;5.50;0.60;;;22.50;34.40;;;;;;5096040;28;20040;-66
2022/01/10 08:40:02;;;;;;;3.53;0.50;;;22.60;34.50;;;;;;5092788;28;20028;-71
2022/01/10 08:42:28;;;;;;;4.40;0.98;;;22.60;34.40;;;;;;5089963;28;20055;-66
2022/01/10 08:44:54;;;;;;;6.18;0.85;;;22.60;34.30;;;;;;5093809;28;20047;-65
2022/01/10 08:47:21;;;;;;;6.90;1.20;;;22.50;34.20;;;;;;5092838;28;20483;-67
2022/01/10 08:49:46;;;;;;;4.82;0.75;;;22.40;34.40;;;;;;5089856;28;20419;-72
2022/01/10 08:52:12;;;;;;;4.45;0.80;;;22.40;34.60;;;;;;5088857;28;20056;-68
2022/01/10 08:54:38;;;;;;;5.15;1.30;;;22.30;34.70;;;;;;5094979;28;20500;-65
2022/01/10 08:57:04;;;;;;;6.70;1.23;;;22.20;34.80;;;;;;5087968;28;20043;-75
2022/01/10 08:59:30;;;;;;;6.60;1.20;;;22.10;34.90;;;;;;5087182;28;20044;-71
2022/01/10 09:02:02;;;;;;;3.95;0.52;;;21.90;35.00;;;;;;5105573;28;20040;-69
2022/01/10 09:04:28;;;;;;;3.20;0.65;;;21.80;35.20;;;;;;5094442;28;20057;-68
2022/01/10 09:06:55;;;;;;;13.65;2.65;;;21.70;35.50;;;;;;5092100;28;20052;-67
2022/01/10 09:09:22;;;;;;;4.07;1.33;;;21.50;35.60;;;;;;5086528;28;20048;-68
2022/01/10 09:11:48;;;;;;;5.38;1.20;;;21.40;35.90;;;;;;5093006;28;20464;-67
2022/01/10 09:14:14;;;;;;;18.10;3.30;;;21.40;36.00;;;;;;5095551;28;20043;-65
2022/01/10 09:16:41;;;;;;;11.43;1.48;;;21.50;36.00;;;;;;5092831;28;20039;-69
2022/01/10 09:19:06;;;;;;;7.22;1.02;;;21.80;35.70;;;;;;5110504;28;20070;-69
2022/01/10 09:21:36;;;;;;;8.07;1.65;;;22.00;35.50;;;;;;5094151;28;20071;-67
2022/01/10 09:24:02;;;;;;;9.15;1.30;;;22.10;35.40;;;;;;5090191;28;20051;-67
2022/01/10 09:26:28;;;;;;;8.43;2.83;;;22.30;35.40;;;;;;5100797;28;20050;-69
2022/01/10 09:28:54;;;;;;;8.95;3.17;;;22.40;34.20;;;;;;5090093;28;20039;-66
2022/01/10 09:31:22;;;;;;;6.55;3.38;;;22.30;32.50;;;;;;5094688;28;20048;-68
2022/01/10 09:33:53;;;;;;;7.03;3.53;;;22.20;32.00;;;;;;5088492;28;20036;-66
2022/01/10 09:36:20;;;;;;;6.13;3.65;;;22.10;31.70;;;;;;5084764;28;20105;-68
2022/01/10 09:38:46;;;;;;;6.97;3.80;;;22.20;31.50;;;;;;5098590;27;20046;-68
2022/01/10 09:41:12;;;;;;;7.20;3.40;;;22.20;31.30;;;;;;5094870;28;20032;-74
2022/01/10 09:43:38;;;;;;;8.48;3.88;;;22.20;31.20;;;;;;5099159;28;20501;-74
2022/01/10 09:46:04;;;;;;;7.78;4.63;;;22.20;31.00;;;;;;5099197;28;20048;-74
2022/01/10 09:48:29;;;;;;;5.28;2.90;;;22.20;30.70;;;;;;5097965;28;20036;-71
2022/01/10 09:50:55;;;;;;;5.63;2.55;;;22.20;30.90;;;;;;5099619;28;20048;-67
2022/01/10 09:53:21;;;;;;;3.45;2.17;;;22.40;30.90;;;;;;5090367;28;20052;-70
2022/01/10 09:55:48;;;;;;;5.38;1.55;;;22.70;30.70;;;;;;5094459;28;20122;-71
2022/01/10 09:58:17;;;;;;;3.83;1.80;;;23.00;30.60;;;;;;5098865;28;20044;-67
2022/01/10 10:00:43;;;;;;;7.32;1.83;;;23.30;30.50;;;;;;5093372;28;20054;-71
2022/01/10 10:03:09;;;;;;;4.35;1.27;;;23.40;30.40;;;;;;5092388;28;20048;-68
2022/01/10 10:05:35;;;;;;;11.32;1.45;;;23.50;30.50;;;;;;5101869;27;20135;-71
2022/01/10 10:08:00;;;;;;;10.02;2.40;;;23.60;30.60;;;;;;5098282;27;20134;-72
2022/01/10 10:10:28;;;;;;;29.85;2.75;;;23.70;30.70;;;;;;5092657;27;20036;-70
2022/01/10 10:12:54;;;;;;;19.55;2.70;;;23.70;30.70;;;;;;5093554;28;20036;-68
2022/01/10 10:15:26;;;;;;;18.40;2.03;;;23.70;30.90;;;;;;5094233;27;20121;-68
2022/01/10 10:17:52;;;;;;;11.80;1.77;;;23.60;31.30;;;;;;5087766;28;20039;-66
2022/01/10 10:20:23;;;;;;;14.48;2.50;;;23.40;31.60;;;;;;5090755;27;20059;-65
2022/01/10 10:22:52;;;;;;;15.70;1.63;;;23.20;31.90;;;;;;5095768;28;20191;-67
2022/01/10 10:25:19;;;;;;;13.93;1.77;;;23.00;32.20;;;;;;5095597;27;20054;-66
2022/01/10 10:27:47;;;;;;;10.02;1.85;;;22.80;32.20;;;;;;5092388;28;20048;-67
2022/01/10 10:30:20;;;;;;;8.85;1.20;;;22.60;32.10;;;;;;5092340;28;20047;-74
2022/01/10 10:32:47;;;;;;;6.93;1.92;;;22.40;32.60;;;;;;5095101;28;20055;-67
2022/01/10 10:35:16;;;;;;;10.77;1.92;;;22.20;32.70;;;;;;5092850;28;20044;-72
2022/01/10 10:37:44;;;;;;;7.97;1.42;;;22.10;33.00;;;;;;5098564;27;20032;-71
2022/01/10 10:40:14;;;;;;;12.05;2.05;;;21.90;33.40;;;;;;5102890;28;20495;-67
2022/01/10 10:42:41;;;;;;;8.50;1.23;;;21.80;33.70;;;;;;5098710;28;20511;-71
2022/01/10 10:45:12;;;;;;;8.32;1.67;;;21.80;33.90;;;;;;5104733;27;20047;-67
2022/01/10 10:47:48;;;;;;;7.40;1.90;;;21.90;34.00;;;;;;5094779;28;20070;-65
2022/01/10 10:50:14;;;;;;;6.43;1.25;;;22.00;34.00;;;;;;5099970;28;20067;-71
2022/01/10 10:52:41;;;;;;;4.65;1.00;;;22.20;34.00;;;;;;5098304;27;20047;-65
2022/01/10 10:55:11;;;;;;;5.20;1.20;;;22.50;33.80;;;;;;5099712;27;20047;-67
2022/01/10 10:57:37;;;;;;;7.13;1.50;;;22.70;33.60;;;;;;5099970;28;20128;-64
2022/01/10 11:00:09;;;;;;;10.38;1.67;;;22.70;33.30;;;;;;5104391;27;20034;-68
2022/01/10 11:02:34;;;;;;;5.88;1.42;;;22.80;33.40;;;;;;5107232;28;20852;-69
2022/01/10 11:05:03;;;;;;;7.38;1.05;;;22.90;33.40;;;;;;5087220;27;20042;-68
2022/01/10 11:07:33;;;;;;;5.65;1.23;;;22.90;33.40;;;;;;5095989;27;20070;-69
2022/01/10 11:10:00;;;;;;;9.10;4.47;;;23.00;33.30;;;;;;5088626;27;20031;-69
2022/01/10 11:12:28;;;;;;;6.25;2.58;;;22.90;32.30;;;;;;5094017;28;20074;-69
2022/01/10 11:14:56;;;;;;;7.25;2.97;;;22.80;32.30;;;;;;5097819;28;20050;-74
2022/01/10 11:17:22;;;;;;;10.82;3.45;;;22.70;32.30;;;;;;5095667;27;20038;-65
2022/01/10 11:22:51;;;;;;;3.75;1.98;;;22.50;33.10;;;;;;5114630;27;20455;-72
2022/01/10 11:25:35;;;;;;;6.68;2.15;;;22.40;33.30;;;;;;5111846;28;20054;-66
2022/01/10 11:28:06;;;;;;;9.80;4.00;;;22.30;33.60;;;;;;5093101;28;20047;-72
2022/01/10 11:33:17;;;;;;;11.35;2.20;;;22.40;33.60;;;;;;5062721;27;20421;-71
2022/01/10 11:35:47;;;;;;;6.97;2.50;;;22.60;33.70;;;;;;5060355;28;20048;-72
2022/01/10 11:41:01;;;;;;;8.65;1.58;;;22.80;33.50;;;;;;5106567;27;20427;-67
2022/01/10 11:43:31;;;;;;;7.85;1.75;;;23.10;33.20;;;;;;5116785;27;20158;-71
2022/01/10 11:54:45;;;;;;;6.22;1.13;;;23.80;32.30;;;;;;5107526;27;1280614;-65
2022/01/10 11:57:15;;;;;;;5.32;1.40;;;23.80;32.20;;;;;;5152667;27;20123;-74
2022/01/10 11:59:46;;;;;;;6.35;1.80;;;23.70;32.20;;;;;;5156322;27;20103;-73
2022/01/10 12:04:53;;;;;;;7.50;4.10;;;23.60;32.40;;;;;;5067504;27;20473;-72
2022/01/10 12:07:22;;;;;;;9.45;5.25;;;23.30;32.00;;;;;;5055635;28;20660;-71
2022/01/10 12:09:48;;;;;;;7.03;2.63;;;23.10;31.70;;;;;;5072863;28;20086;-67
2022/01/10 12:12:19;;;;;;;7.68;2.53;;;22.80;32.30;;;;;;5068183;28;20056;-68
2022/01/10 12:14:47;;;;;;;2.78;1.38;;;22.60;32.90;;;;;;5100368;28;20043;-65
2022/01/10 12:17:14;;;;;;;7.97;1.95;;;22.60;33.30;;;;;;5066212;28;20126;-66
2022/01/10 12:19:40;;;;;;;5.05;1.98;;;22.60;33.50;;;;;;5099110;28;20048;-66
2022/01/10 12:22:07;;;;;;;6.82;2.40;;;22.60;33.60;;;;;;5069837;28;20044;-65
2022/01/10 12:24:35;;;;;;;3.75;1.35;;;22.70;33.50;;;;;;5068781;28;20052;-67
2022/01/10 12:27:03;;;;;;;6.05;1.50;;;22.80;33.30;;;;;;5066530;28;20132;-66
2022/01/10 12:29:30;;;;;;;3.05;1.10;;;23.00;33.30;;;;;;5063896;28;20072;-68
2022/01/10 12:31:57;;;;;;;4.95;1.23;;;23.10;33.50;;;;;;5065665;28;21370;-65
2022/01/10 12:34:23;;;;;;;4.82;1.45;;;23.10;33.60;;;;;;5064502;28;20044;-68
2022/01/10 12:36:48;;;;;;;5.95;1.70;;;23.20;33.70;;;;;;5065374;28;20087;-68
2022/01/10 12:39:21;;;;;;;3.45;1.30;;;23.30;33.60;;;;;;5062171;28;20079;-69
2022/01/10 12:41:48;;;;;;;4.45;1.30;;;23.40;33.60;;;;;;5063493;28;20094;-68
2022/01/10 12:44:14;;;;;;;9.43;1.48;;;23.40;33.60;;;;;;5061459;28;20296;-66
2022/01/10 12:46:40;;;;;;;5.47;0.90;;;23.30;33.80;;;;;;5067020;28;20778;-66
2022/01/10 12:49:10;;;;;;;5.38;1.00;;;23.20;34.10;;;;;;5066402;28;20047;-66
2022/01/10 12:51:43;;;;;;;5.38;1.20;;;23.10;34.30;;;;;;5064499;28;20171;-68
2022/01/10 12:54:27;;;;;;;11.05;2.33;;;23.00;34.40;;;;;;5098506;28;20036;-68
2022/01/10 12:56:54;;;;;;;5.57;1.27;;;22.90;34.60;;;;;;5061218;28;20058;-68
2022/01/10 12:59:23;;;;;;;6.07;2.13;;;22.80;34.80;;;;;;5063689;28;20123;-68
2022/01/10 13:01:52;;;;;;;4.13;1.45;;;22.70;35.10;;;;;;5082763;28;20809;-69
2022/01/10 13:04:23;;;;;;;6.35;1.23;;;22.60;35.30;;;;;;5058672;28;20114;-71
2022/01/10 13:06:54;;;;;;;5.10;1.15;;;22.60;35.50;;;;;;5098099;28;20131;-72
2022/01/10 13:09:20;;;;;;;3.65;1.15;;;22.60;35.90;;;;;;5063197;28;20036;-67
2022/01/10 13:11:51;;;;;;;4.95;1.42;;;22.50;36.00;;;;;;5066461;28;20096;-69
2022/01/10 13:14:19;;;;;;;4.70;1.00;;;22.50;36.70;;;;;;5092008;28;20043;-69
2022/01/10 13:16:57;;;;;;;2.65;0.85;;;22.50;36.80;;;;;;5082969;28;20040;-70
2022/01/10 13:19:27;;;;;;;4.65;1.10;;;22.70;36.70;;;;;;5051527;28;20516;-70
2022/01/10 13:21:56;;;;;;;5.18;1.20;;;23.00;36.20;;;;;;5056636;28;20052;-71